sensor_id;sensor_type;location;lat;lon;timestamp;P1;durP1;ratioP1;P2;durP2;ratioP2
76417;SDS011;65250;47.602;19.002;2023-02-28T00:01:25;8.20;;;5.00;;
76417;SDS011;65250;47.602;19.002;2023-02-28T00:03:53;12.35;;;6.20;;
76417;SDS011;65250;47.602;19.002;2023-02-28T00:06:21;15.50;;;5.80;;
76417;SDS011;65250;47.602;19.002;2023-02-28T00:08:51;11.63;;;5.97;;
76417;SDS011;65250;47.602;19.002;2023-02-28T00:11:18;14.25;;;6.63;;
76417;SDS011;65250;47.602;19.002;2023-02-28T00:13:46;12.02;;;5.70;;
76417;SDS011;65250;47.602;19.002;2023-02-28T00:16:16;11.80;;;5.72;;
76417;SDS011;65250;47.602;19.002;2023-02-28T00:18:47;15.43;;;6.87;;
76417;SDS011;65250;47.602;19.002;2023-02-28T00:21:16;15.48;;;7.00;;
76417;SDS011;65250;47.602;19.002;2023-02-28T00:23:44;17.98;;;8.50;;
76417;SDS011;65250;47.602;19.002;2023-02-28T00:26:12;21.80;;;9.40;;
76417;SDS011;65250;47.602;19.002;2023-02-28T00:28:40;19.38;;;8.50;;
76417;SDS011;65250;47.602;19.002;2023-02-28T00:31:08;19.73;;;9.33;;
76417;SDS011;65250;47.602;19.002;2023-02-28T00:33:36;23.63;;;9.40;;
76417;SDS011;65250;47.602;19.002;2023-02-28T00:36:05;20.25;;;9.27;;
76417;SDS011;65250;47.602;19.002;2023-02-28T00:38:33;21.50;;;8.43;;
76417;SDS011;65250;47.602;19.002;2023-02-28T00:41:01;18.77;;;9.60;;
76417;SDS011;65250;47.602;19.002;2023-02-28T00:43:32;20.77;;;8.40;;
76417;SDS011;65250;47.602;19.002;2023-02-28T00:46:00;20.40;;;9.15;;
76417;SDS011;65250;47.602;19.002;2023-02-28T00:48:29;20.67;;;8.32;;
76417;SDS011;65250;47.602;19.002;2023-02-28T00:50:57;17.50;;;8.35;;
76417;SDS011;65250;47.602;19.002;2023-02-28T00:53:25;25.30;;;9.18;;
76417;SDS011;65250;47.602;19.002;2023-02-28T00:55:52;25.07;;;8.90;;
76417;SDS011;65250;47.602;19.002;2023-02-28T00:58:20;20.40;;;9.55;;
76417;SDS011;65250;47.602;19.002;2023-02-28T01:00:48;19.77;;;8.77;;
76417;SDS011;65250;47.602;19.002;2023-02-28T01:03:17;17.60;;;7.97;;
76417;SDS011;65250;47.602;19.002;2023-02-28T01:05:46;19.63;;;8.43;;
76417;SDS011;65250;47.602;19.002;2023-02-28T01:08:14;19.27;;;8.63;;
76417;SDS011;65250;47.602;19.002;2023-02-28T01:10:42;18.33;;;9.50;;
76417;SDS011;65250;47.602;19.002;2023-02-28T01:13:10;22.33;;;9.68;;
76417;SDS011;65250;47.602;19.002;2023-02-28T01:15:39;21.15;;;9.18;;
76417;SDS011;65250;47.602;19.002;2023-02-28T01:18:09;18.17;;;8.27;;
76417;SDS011;65250;47.602;19.002;2023-02-28T01:20:37;22.47;;;9.17;;
76417;SDS011;65250;47.602;19.002;2023-02-28T01:23:05;20.50;;;9.77;;
76417;SDS011;65250;47.602;19.002;2023-02-28T01:25:36;22.48;;;10.18;;
76417;SDS011;65250;47.602;19.002;2023-02-28T01:28:04;19.63;;;9.32;;
76417;SDS011;65250;47.602;19.002;2023-02-28T01:30:32;22.45;;;10.70;;
76417;SDS011;65250;47.602;19.002;2023-02-28T01:33:00;24.23;;;10.30;;
76417;SDS011;65250;47.602;19.002;2023-02-28T01:35:27;25.70;;;10.52;;
76417;SDS011;65250;47.602;19.002;2023-02-28T01:37:55;27.90;;;11.27;;
76417;SDS011;65250;47.602;19.002;2023-02-28T01:40:35;23.23;;;10.27;;
76417;SDS011;65250;47.602;19.002;2023-02-28T01:43:02;24.45;;;9.85;;
76417;SDS011;65250;47.602;19.002;2023-02-28T01:45:31;22.50;;;9.97;;
76417;SDS011;65250;47.602;19.002;2023-02-28T01:48:05;21.00;;;9.93;;
76417;SDS011;65250;47.602;19.002;2023-02-28T01:50:36;22.23;;;9.52;;
76417;SDS011;65250;47.602;19.002;2023-02-28T01:53:09;19.25;;;9.25;;
76417;SDS011;65250;47.602;19.002;2023-02-28T01:55:39;19.92;;;9.38;;
76417;SDS011;65250;47.602;19.002;2023-02-28T01:58:08;17.73;;;8.80;;
76417;SDS011;65250;47.602;19.002;2023-02-28T02:00:36;21.42;;;9.75;;
76417;SDS011;65250;47.602;19.002;2023-02-28T02:03:09;22.73;;;8.95;;
76417;SDS011;65250;47.602;19.002;2023-02-28T02:05:42;16.17;;;8.02;;
76417;SDS011;65250;47.602;19.002;2023-02-28T02:08:19;22.35;;;8.50;;
76417;SDS011;65250;47.602;19.002;2023-02-28T02:10:53;20.10;;;8.07;;
76417;SDS011;65250;47.602;19.002;2023-02-28T02:36:01;3.90;;;2.08;;
76417;SDS011;65250;47.602;19.002;2023-02-28T02:38:48;6.43;;;2.10;;
76417;SDS011;65250;47.602;19.002;2023-02-28T02:44:03;6.10;;;2.42;;
76417;SDS011;65250;47.602;19.002;2023-02-28T02:46:43;5.97;;;2.65;;
76417;SDS011;65250;47.602;19.002;2023-02-28T02:49:13;5.15;;;2.42;;
76417;SDS011;65250;47.602;19.002;2023-02-28T02:52:09;4.63;;;1.97;;
76417;SDS011;65250;47.602;19.002;2023-02-28T02:54:40;3.97;;;2.53;;
76417;SDS011;65250;47.602;19.002;2023-02-28T02:57:13;5.20;;;2.38;;
76417;SDS011;65250;47.602;19.002;2023-02-28T02:59:45;6.35;;;2.53;;
76417;SDS011;65250;47.602;19.002;2023-02-28T03:02:14;4.05;;;2.50;;
76417;SDS011;65250;47.602;19.002;2023-02-28T03:04:42;5.30;;;2.43;;
76417;SDS011;65250;47.602;19.002;2023-02-28T03:07:12;6.07;;;2.63;;
76417;SDS011;65250;47.602;19.002;2023-02-28T03:09:40;5.95;;;2.90;;
76417;SDS011;65250;47.602;19.002;2023-02-28T03:12:09;5.93;;;2.35;;
76417;SDS011;65250;47.602;19.002;2023-02-28T03:17:20;4.73;;;2.10;;
76417;SDS011;65250;47.602;19.002;2023-02-28T03:35:47;6.03;;;2.40;;
76417;SDS011;65250;47.602;19.002;2023-02-28T03:38:36;6.45;;;2.38;;
76417;SDS011;65250;47.602;19.002;2023-02-28T03:41:12;5.20;;;2.55;;
76417;SDS011;65250;47.602;19.002;2023-02-28T03:43:43;5.33;;;2.87;;
76417;SDS011;65250;47.602;19.002;2023-02-28T03:46:15;5.40;;;2.38;;
76417;SDS011;65250;47.602;19.002;2023-02-28T03:48:46;6.75;;;2.42;;
76417;SDS011;65250;47.602;19.002;2023-02-28T03:51:18;6.00;;;2.63;;
76417;SDS011;65250;47.602;19.002;2023-02-28T03:53:49;6.75;;;2.30;;
76417;SDS011;65250;47.602;19.002;2023-02-28T03:56:27;5.67;;;2.23;;
76417;SDS011;65250;47.602;19.002;2023-02-28T03:59:16;6.00;;;2.58;;
76417;SDS011;65250;47.602;19.002;2023-02-28T04:01:48;6.40;;;2.50;;
76417;SDS011;65250;47.602;19.002;2023-02-28T04:04:16;6.47;;;2.80;;
76417;SDS011;65250;47.602;19.002;2023-02-28T04:06:44;4.63;;;2.70;;
76417;SDS011;65250;47.602;19.002;2023-02-28T04:09:13;5.47;;;2.60;;
76417;SDS011;65250;47.602;19.002;2023-02-28T04:11:42;4.85;;;2.42;;
76417;SDS011;65250;47.602;19.002;2023-02-28T04:14:22;7.00;;;3.03;;
76417;SDS011;65250;47.602;19.002;2023-02-28T04:16:50;8.32;;;3.10;;
76417;SDS011;65250;47.602;19.002;2023-02-28T04:19:18;4.53;;;2.90;;
76417;SDS011;65250;47.602;19.002;2023-02-28T04:21:47;6.90;;;3.00;;
76417;SDS011;65250;47.602;19.002;2023-02-28T04:24:20;7.15;;;3.35;;
76417;SDS011;65250;47.602;19.002;2023-02-28T04:26:50;5.32;;;2.90;;
76417;SDS011;65250;47.602;19.002;2023-02-28T04:29:20;8.80;;;3.42;;
76417;SDS011;65250;47.602;19.002;2023-02-28T04:31:48;7.78;;;3.47;;
76417;SDS011;65250;47.602;19.002;2023-02-28T04:34:17;4.87;;;2.37;;
76417;SDS011;65250;47.602;19.002;2023-02-28T04:36:46;5.90;;;2.70;;
76417;SDS011;65250;47.602;19.002;2023-02-28T04:39:34;5.25;;;2.65;;
76417;SDS011;65250;47.602;19.002;2023-02-28T04:42:03;7.47;;;2.78;;
76417;SDS011;65250;47.602;19.002;2023-02-28T04:44:30;9.23;;;3.00;;
76417;SDS011;65250;47.602;19.002;2023-02-28T04:46:58;7.93;;;2.90;;
76417;SDS011;65250;47.602;19.002;2023-02-28T04:49:26;5.00;;;2.25;;
76417;SDS011;65250;47.602;19.002;2023-02-28T04:51:54;8.73;;;2.72;;
76417;SDS011;65250;47.602;19.002;2023-02-28T04:54:22;7.10;;;3.30;;
76417;SDS011;65250;47.602;19.002;2023-02-28T04:56:50;6.05;;;3.13;;
76417;SDS011;65250;47.602;19.002;2023-02-28T04:59:18;7.77;;;3.10;;
76417;SDS011;65250;47.602;19.002;2023-02-28T05:01:47;5.32;;;2.85;;
76417;SDS011;65250;47.602;19.002;2023-02-28T05:04:16;5.50;;;2.35;;
76417;SDS011;65250;47.602;19.002;2023-02-28T05:06:43;9.02;;;2.97;;
76417;SDS011;65250;47.602;19.002;2023-02-28T05:09:11;6.20;;;2.72;;
76417;SDS011;65250;47.602;19.002;2023-02-28T05:11:39;5.30;;;2.97;;
76417;SDS011;65250;47.602;19.002;2023-02-28T05:14:11;6.78;;;2.88;;
76417;SDS011;65250;47.602;19.002;2023-02-28T05:16:39;6.07;;;2.72;;
76417;SDS011;65250;47.602;19.002;2023-02-28T05:19:07;6.55;;;3.42;;
76417;SDS011;65250;47.602;19.002;2023-02-28T05:21:40;4.75;;;2.55;;
76417;SDS011;65250;47.602;19.002;2023-02-28T05:24:10;6.30;;;2.37;;
76417;SDS011;65250;47.602;19.002;2023-02-28T05:26:40;6.28;;;2.90;;
76417;SDS011;65250;47.602;19.002;2023-02-28T05:29:09;5.65;;;2.75;;
76417;SDS011;65250;47.602;19.002;2023-02-28T05:31:36;6.80;;;3.10;;
76417;SDS011;65250;47.602;19.002;2023-02-28T05:34:04;6.53;;;2.97;;
76417;SDS011;65250;47.602;19.002;2023-02-28T05:36:32;6.70;;;2.53;;
76417;SDS011;65250;47.602;19.002;2023-02-28T05:39:00;5.97;;;3.25;;
76417;SDS011;65250;47.602;19.002;2023-02-28T05:41:29;5.97;;;2.60;;
76417;SDS011;65250;47.602;19.002;2023-02-28T05:43:57;5.60;;;2.65;;
76417;SDS011;65250;47.602;19.002;2023-02-28T05:46:26;7.40;;;2.78;;
76417;SDS011;65250;47.602;19.002;2023-02-28T05:48:53;5.20;;;2.50;;
76417;SDS011;65250;47.602;19.002;2023-02-28T05:51:22;5.10;;;2.67;;
76417;SDS011;65250;47.602;19.002;2023-02-28T05:53:50;9.25;;;3.28;;
76417;SDS011;65250;47.602;19.002;2023-02-28T05:56:18;5.32;;;2.80;;
76417;SDS011;65250;47.602;19.002;2023-02-28T05:58:45;7.80;;;3.55;;
76417;SDS011;65250;47.602;19.002;2023-02-28T06:01:21;6.47;;;2.67;;
76417;SDS011;65250;47.602;19.002;2023-02-28T06:03:51;7.22;;;2.47;;
76417;SDS011;65250;47.602;19.002;2023-02-28T06:06:19;8.23;;;2.33;;
76417;SDS011;65250;47.602;19.002;2023-02-28T06:08:47;6.75;;;2.70;;
76417;SDS011;65250;47.602;19.002;2023-02-28T06:11:15;7.93;;;2.70;;
76417;SDS011;65250;47.602;19.002;2023-02-28T06:13:43;8.13;;;2.87;;
76417;SDS011;65250;47.602;19.002;2023-02-28T06:16:11;6.68;;;2.50;;
76417;SDS011;65250;47.602;19.002;2023-02-28T06:18:39;7.72;;;2.55;;
76417;SDS011;65250;47.602;19.002;2023-02-28T06:21:06;7.20;;;2.80;;
76417;SDS011;65250;47.602;19.002;2023-02-28T06:23:35;5.03;;;2.75;;
76417;SDS011;65250;47.602;19.002;2023-02-28T06:26:03;6.20;;;2.73;;
76417;SDS011;65250;47.602;19.002;2023-02-28T06:28:30;6.22;;;2.65;;
76417;SDS011;65250;47.602;19.002;2023-02-28T06:30:57;7.05;;;3.00;;
76417;SDS011;65250;47.602;19.002;2023-02-28T06:33:24;6.32;;;2.38;;
76417;SDS011;65250;47.602;19.002;2023-02-28T06:35:52;4.90;;;2.42;;
76417;SDS011;65250;47.602;19.002;2023-02-28T06:38:20;6.57;;;2.90;;
76417;SDS011;65250;47.602;19.002;2023-02-28T06:40:53;5.47;;;2.50;;
76417;SDS011;65250;47.602;19.002;2023-02-28T06:43:22;6.50;;;2.83;;
76417;SDS011;65250;47.602;19.002;2023-02-28T06:45:49;5.60;;;2.38;;
76417;SDS011;65250;47.602;19.002;2023-02-28T06:48:17;8.07;;;2.40;;
76417;SDS011;65250;47.602;19.002;2023-02-28T06:50:45;4.83;;;2.30;;
76417;SDS011;65250;47.602;19.002;2023-02-28T06:53:15;4.85;;;2.40;;
76417;SDS011;65250;47.602;19.002;2023-02-28T06:55:43;5.15;;;2.30;;
76417;SDS011;65250;47.602;19.002;2023-02-28T06:58:10;6.55;;;2.45;;
76417;SDS011;65250;47.602;19.002;2023-02-28T07:00:45;4.82;;;2.40;;
76417;SDS011;65250;47.602;19.002;2023-02-28T07:03:13;4.60;;;2.47;;
76417;SDS011;65250;47.602;19.002;2023-02-28T07:05:42;5.07;;;2.17;;
76417;SDS011;65250;47.602;19.002;2023-02-28T07:08:09;4.13;;;2.05;;
76417;SDS011;65250;47.602;19.002;2023-02-28T07:10:37;6.78;;;2.60;;
76417;SDS011;65250;47.602;19.002;2023-02-28T07:13:05;4.20;;;2.17;;
76417;SDS011;65250;47.602;19.002;2023-02-28T07:15:33;5.53;;;2.10;;
76417;SDS011;65250;47.602;19.002;2023-02-28T07:18:04;4.22;;;2.42;;
76417;SDS011;65250;47.602;19.002;2023-02-28T07:40:36;4.95;;;2.45;;
76417;SDS011;65250;47.602;19.002;2023-02-28T07:43:04;5.85;;;2.67;;
76417;SDS011;65250;47.602;19.002;2023-02-28T07:45:31;6.65;;;3.58;;
76417;SDS011;65250;47.602;19.002;2023-02-28T07:48:01;5.10;;;2.50;;
76417;SDS011;65250;47.602;19.002;2023-02-28T07:50:28;5.95;;;3.30;;
76417;SDS011;65250;47.602;19.002;2023-02-28T07:52:58;5.65;;;2.92;;
76417;SDS011;65250;47.602;19.002;2023-02-28T07:55:25;7.15;;;3.70;;
76417;SDS011;65250;47.602;19.002;2023-02-28T07:57:52;8.32;;;3.47;;
76417;SDS011;65250;47.602;19.002;2023-02-28T08:00:20;5.80;;;3.40;;
76417;SDS011;65250;47.602;19.002;2023-02-28T08:02:48;10.10;;;3.30;;
76417;SDS011;65250;47.602;19.002;2023-02-28T08:05:15;7.88;;;3.33;;
76417;SDS011;65250;47.602;19.002;2023-02-28T08:07:48;6.63;;;3.38;;
76417;SDS011;65250;47.602;19.002;2023-02-28T08:10:16;5.68;;;2.45;;
76417;SDS011;65250;47.602;19.002;2023-02-28T08:12:43;21.43;;;3.33;;
76417;SDS011;65250;47.602;19.002;2023-02-28T08:15:10;6.00;;;2.90;;
76417;SDS011;65250;47.602;19.002;2023-02-28T08:17:37;5.70;;;3.03;;
76417;SDS011;65250;47.602;19.002;2023-02-28T08:20:04;7.65;;;3.30;;
76417;SDS011;65250;47.602;19.002;2023-02-28T08:22:32;5.82;;;3.22;;
76417;SDS011;65250;47.602;19.002;2023-02-28T08:24:59;5.30;;;2.73;;
76417;SDS011;65250;47.602;19.002;2023-02-28T08:27:26;5.25;;;2.90;;
76417;SDS011;65250;47.602;19.002;2023-02-28T08:29:53;6.55;;;3.22;;
76417;SDS011;65250;47.602;19.002;2023-02-28T08:32:20;6.88;;;3.03;;
76417;SDS011;65250;47.602;19.002;2023-02-28T08:34:56;5.78;;;2.88;;
76417;SDS011;65250;47.602;19.002;2023-02-28T08:37:23;5.47;;;2.83;;
76417;SDS011;65250;47.602;19.002;2023-02-28T08:39:50;6.45;;;3.13;;
76417;SDS011;65250;47.602;19.002;2023-02-28T08:42:21;7.85;;;3.53;;
76417;SDS011;65250;47.602;19.002;2023-02-28T08:44:49;6.78;;;3.33;;
76417;SDS011;65250;47.602;19.002;2023-02-28T08:47:16;6.93;;;3.00;;
76417;SDS011;65250;47.602;19.002;2023-02-28T08:49:43;9.43;;;3.37;;
76417;SDS011;65250;47.602;19.002;2023-02-28T08:52:10;5.53;;;3.30;;
76417;SDS011;65250;47.602;19.002;2023-02-28T08:54:37;5.05;;;2.97;;
76417;SDS011;65250;47.602;19.002;2023-02-28T08:57:04;5.00;;;2.78;;
76417;SDS011;65250;47.602;19.002;2023-02-28T08:59:31;6.03;;;3.67;;
76417;SDS011;65250;47.602;19.002;2023-02-28T09:01:58;7.37;;;4.10;;
76417;SDS011;65250;47.602;19.002;2023-02-28T09:04:26;6.45;;;3.38;;
76417;SDS011;65250;47.602;19.002;2023-02-28T09:06:53;5.28;;;3.00;;
76417;SDS011;65250;47.602;19.002;2023-02-28T09:09:20;5.20;;;3.08;;
76417;SDS011;65250;47.602;19.002;2023-02-28T09:11:48;9.82;;;3.53;;
76417;SDS011;65250;47.602;19.002;2023-02-28T09:14:14;5.90;;;3.53;;
76417;SDS011;65250;47.602;19.002;2023-02-28T09:16:44;5.47;;;3.28;;
76417;SDS011;65250;47.602;19.002;2023-02-28T09:19:11;5.10;;;3.40;;
76417;SDS011;65250;47.602;19.002;2023-02-28T09:21:38;4.13;;;3.05;;
76417;SDS011;65250;47.602;19.002;2023-02-28T09:24:06;6.72;;;4.00;;
76417;SDS011;65250;47.602;19.002;2023-02-28T09:26:34;7.07;;;3.70;;
76417;SDS011;65250;47.602;19.002;2023-02-28T09:29:10;6.32;;;3.95;;
76417;SDS011;65250;47.602;19.002;2023-02-28T09:31:45;6.07;;;3.75;;
76417;SDS011;65250;47.602;19.002;2023-02-28T09:34:13;6.65;;;3.63;;
76417;SDS011;65250;47.602;19.002;2023-02-28T09:36:40;5.00;;;3.35;;
76417;SDS011;65250;47.602;19.002;2023-02-28T09:39:12;5.05;;;3.60;;
76417;SDS011;65250;47.602;19.002;2023-02-28T09:41:43;6.07;;;3.90;;
76417;SDS011;65250;47.602;19.002;2023-02-28T09:46:58;5.43;;;3.72;;
76417;SDS011;65250;47.602;19.002;2023-02-28T09:49:45;5.47;;;3.40;;
76417;SDS011;65250;47.602;19.002;2023-02-28T09:52:21;7.53;;;3.40;;
76417;SDS011;65250;47.602;19.002;2023-02-28T09:54:51;8.03;;;3.90;;
76417;SDS011;65250;47.602;19.002;2023-02-28T10:00:19;5.63;;;3.88;;
76417;SDS011;65250;47.602;19.002;2023-02-28T10:02:54;7.22;;;4.30;;
76417;SDS011;65250;47.602;19.002;2023-02-28T10:05:41;5.88;;;3.40;;
76417;SDS011;65250;47.602;19.002;2023-02-28T10:11:32;6.07;;;3.33;;
76417;SDS011;65250;47.602;19.002;2023-02-28T10:19:30;5.38;;;3.40;;
76417;SDS011;65250;47.602;19.002;2023-02-28T10:22:03;5.47;;;3.53;;
76417;SDS011;65250;47.602;19.002;2023-02-28T10:24:35;5.47;;;3.15;;
76417;SDS011;65250;47.602;19.002;2023-02-28T10:29:52;7.13;;;2.95;;
76417;SDS011;65250;47.602;19.002;2023-02-28T10:32:23;4.85;;;3.40;;
76417;SDS011;65250;47.602;19.002;2023-02-28T10:35:06;6.63;;;3.50;;
76417;SDS011;65250;47.602;19.002;2023-02-28T10:37:38;5.38;;;3.42;;
76417;SDS011;65250;47.602;19.002;2023-02-28T10:40:06;6.07;;;3.30;;
76417;SDS011;65250;47.602;19.002;2023-02-28T10:43:03;5.05;;;2.80;;
76417;SDS011;65250;47.602;19.002;2023-02-28T10:45:34;4.72;;;3.20;;
76417;SDS011;65250;47.602;19.002;2023-02-28T10:50:44;4.60;;;3.70;;
76417;SDS011;65250;47.602;19.002;2023-02-28T10:55:56;3.83;;;2.90;;
76417;SDS011;65250;47.602;19.002;2023-02-28T11:00:58;3.90;;;2.93;;
76417;SDS011;65250;47.602;19.002;2023-02-28T11:03:33;4.70;;;3.40;;
76417;SDS011;65250;47.602;19.002;2023-02-28T11:06:06;7.00;;;3.15;;
76417;SDS011;65250;47.602;19.002;2023-02-28T11:08:34;4.10;;;2.88;;
76417;SDS011;65250;47.602;19.002;2023-02-28T11:11:24;2.40;;;2.20;;
76417;SDS011;65250;47.602;19.002;2023-02-28T11:13:56;2.70;;;2.20;;
76417;SDS011;65250;47.602;19.002;2023-02-28T11:16:33;4.70;;;2.97;;
76417;SDS011;65250;47.602;19.002;2023-02-28T11:19:02;3.97;;;2.72;;
76417;SDS011;65250;47.602;19.002;2023-02-28T11:21:31;3.60;;;2.60;;
76417;SDS011;65250;47.602;19.002;2023-02-28T11:24:13;4.82;;;3.05;;
76417;SDS011;65250;47.602;19.002;2023-02-28T11:26:51;7.27;;;3.27;;
76417;SDS011;65250;47.602;19.002;2023-02-28T11:34:31;7.15;;;3.78;;
76417;SDS011;65250;47.602;19.002;2023-02-28T11:36:59;6.22;;;3.47;;
76417;SDS011;65250;47.602;19.002;2023-02-28T11:39:28;5.43;;;3.93;;
76417;SDS011;65250;47.602;19.002;2023-02-28T11:42:11;7.35;;;3.78;;
76417;SDS011;65250;47.602;19.002;2023-02-28T11:44:48;4.28;;;3.50;;
76417;SDS011;65250;47.602;19.002;2023-02-28T11:52:51;5.77;;;4.17;;
76417;SDS011;65250;47.602;19.002;2023-02-28T11:58:02;4.68;;;3.40;;
76417;SDS011;65250;47.602;19.002;2023-02-28T12:00:44;7.57;;;4.25;;
76417;SDS011;65250;47.602;19.002;2023-02-28T12:03:19;5.60;;;4.10;;
76417;SDS011;65250;47.602;19.002;2023-02-28T12:22:34;11.75;;;3.83;;
76417;SDS011;65250;47.602;19.002;2023-02-28T12:27:43;5.50;;;4.03;;
76417;SDS011;65250;47.602;19.002;2023-02-28T12:30:16;8.95;;;4.20;;
76417;SDS011;65250;47.602;19.002;2023-02-28T12:32:45;9.97;;;4.30;;
76417;SDS011;65250;47.602;19.002;2023-02-28T12:35:26;6.68;;;4.35;;
76417;SDS011;65250;47.602;19.002;2023-02-28T12:38:01;7.57;;;4.35;;
76417;SDS011;65250;47.602;19.002;2023-02-28T12:40:41;8.30;;;4.93;;
76417;SDS011;65250;47.602;19.002;2023-02-28T12:43:12;8.35;;;4.30;;
76417;SDS011;65250;47.602;19.002;2023-02-28T12:45:42;7.03;;;5.20;;
76417;SDS011;65250;47.602;19.002;2023-02-28T12:48:20;8.55;;;5.20;;
76417;SDS011;65250;47.602;19.002;2023-02-28T12:50:58;5.45;;;4.90;;
76417;SDS011;65250;47.602;19.002;2023-02-28T12:59:11;6.73;;;4.83;;
76417;SDS011;65250;47.602;19.002;2023-02-28T13:01:46;8.18;;;5.07;;
76417;SDS011;65250;47.602;19.002;2023-02-28T13:10:37;9.32;;;5.65;;
76417;SDS011;65250;47.602;19.002;2023-02-28T13:13:05;10.77;;;5.13;;
76417;SDS011;65250;47.602;19.002;2023-02-28T13:15:33;5.07;;;4.57;;
76417;SDS011;65250;47.602;19.002;2023-02-28T13:18:04;6.47;;;4.30;;
76417;SDS011;65250;47.602;19.002;2023-02-28T13:20:35;5.40;;;4.60;;
76417;SDS011;65250;47.602;19.002;2023-02-28T13:23:03;7.47;;;5.03;;
76417;SDS011;65250;47.602;19.002;2023-02-28T13:28:09;9.65;;;6.88;;
76417;SDS011;65250;47.602;19.002;2023-02-28T13:36:06;5.20;;;4.00;;
76417;SDS011;65250;47.602;19.002;2023-02-28T13:44:08;17.27;;;4.80;;
76417;SDS011;65250;47.602;19.002;2023-02-28T13:46:36;6.90;;;3.97;;
76417;SDS011;65250;47.602;19.002;2023-02-28T13:52:07;5.93;;;3.80;;
76417;SDS011;65250;47.602;19.002;2023-02-28T13:57:27;6.63;;;3.45;;
76417;SDS011;65250;47.602;19.002;2023-02-28T14:11:34;6.63;;;4.38;;
76417;SDS011;65250;47.602;19.002;2023-02-28T14:14:04;8.20;;;3.85;;
76417;SDS011;65250;47.602;19.002;2023-02-28T14:16:36;6.93;;;4.32;;
76417;SDS011;65250;47.602;19.002;2023-02-28T14:19:24;9.10;;;4.33;;
76417;SDS011;65250;47.602;19.002;2023-02-28T14:30:41;7.32;;;3.92;;
76417;SDS011;65250;47.602;19.002;2023-02-28T14:33:23;6.57;;;3.97;;
76417;SDS011;65250;47.602;19.002;2023-02-28T14:36:10;6.95;;;3.67;;
76417;SDS011;65250;47.602;19.002;2023-02-28T14:41:16;6.00;;;3.60;;
76417;SDS011;65250;47.602;19.002;2023-02-28T14:43:51;6.65;;;4.15;;
76417;SDS011;65250;47.602;19.002;2023-02-28T14:46:46;5.80;;;4.20;;
76417;SDS011;65250;47.602;19.002;2023-02-28T14:54:32;6.95;;;3.70;;
76417;SDS011;65250;47.602;19.002;2023-02-28T14:56:59;5.35;;;3.22;;
76417;SDS011;65250;47.602;19.002;2023-02-28T14:59:33;7.63;;;3.97;;
76417;SDS011;65250;47.602;19.002;2023-02-28T15:02:17;11.05;;;3.70;;
76417;SDS011;65250;47.602;19.002;2023-02-28T15:04:56;5.88;;;3.40;;
76417;SDS011;65250;47.602;19.002;2023-02-28T15:07:27;8.02;;;3.55;;
76417;SDS011;65250;47.602;19.002;2023-02-28T15:10:15;5.72;;;3.50;;
76417;SDS011;65250;47.602;19.002;2023-02-28T15:12:45;5.27;;;3.10;;
76417;SDS011;65250;47.602;19.002;2023-02-28T15:15:19;6.50;;;3.38;;
76417;SDS011;65250;47.602;19.002;2023-02-28T15:18:01;7.32;;;3.42;;
76417;SDS011;65250;47.602;19.002;2023-02-28T15:20:30;6.03;;;3.83;;
76417;SDS011;65250;47.602;19.002;2023-02-28T15:22:58;10.00;;;3.70;;
76417;SDS011;65250;47.602;19.002;2023-02-28T15:25:26;10.90;;;3.40;;
76417;SDS011;65250;47.602;19.002;2023-02-28T15:27:53;5.00;;;3.35;;
76417;SDS011;65250;47.602;19.002;2023-02-28T15:30:29;5.18;;;3.10;;
76417;SDS011;65250;47.602;19.002;2023-02-28T15:35:43;7.50;;;3.80;;
76417;SDS011;65250;47.602;19.002;2023-02-28T15:40:45;7.55;;;3.38;;
76417;SDS011;65250;47.602;19.002;2023-02-28T15:45:51;5.88;;;3.25;;
76417;SDS011;65250;47.602;19.002;2023-02-28T15:48:23;8.55;;;3.03;;
76417;SDS011;65250;47.602;19.002;2023-02-28T15:50:52;6.20;;;3.40;;
76417;SDS011;65250;47.602;19.002;2023-02-28T15:53:22;4.70;;;3.00;;
76417;SDS011;65250;47.602;19.002;2023-02-28T15:55:52;5.32;;;3.20;;
76417;SDS011;65250;47.602;19.002;2023-02-28T15:58:20;6.20;;;3.22;;
76417;SDS011;65250;47.602;19.002;2023-02-28T16:00:59;8.32;;;3.80;;
76417;SDS011;65250;47.602;19.002;2023-02-28T16:03:38;6.00;;;3.37;;
76417;SDS011;65250;47.602;19.002;2023-02-28T16:08:44;6.10;;;3.30;;
76417;SDS011;65250;47.602;19.002;2023-02-28T16:11:11;6.18;;;3.35;;
76417;SDS011;65250;47.602;19.002;2023-02-28T16:13:38;5.82;;;3.75;;
76417;SDS011;65250;47.602;19.002;2023-02-28T16:16:05;6.57;;;3.40;;
76417;SDS011;65250;47.602;19.002;2023-02-28T16:18:33;8.30;;;4.40;;
76417;SDS011;65250;47.602;19.002;2023-02-28T16:21:00;7.43;;;3.88;;
76417;SDS011;65250;47.602;19.002;2023-02-28T16:23:27;7.82;;;3.92;;
76417;SDS011;65250;47.602;19.002;2023-02-28T16:25:55;7.32;;;4.47;;
76417;SDS011;65250;47.602;19.002;2023-02-28T16:28:25;7.10;;;4.27;;
76417;SDS011;65250;47.602;19.002;2023-02-28T16:31:02;9.63;;;3.90;;
76417;SDS011;65250;47.602;19.002;2023-02-28T16:33:32;8.75;;;4.70;;
76417;SDS011;65250;47.602;19.002;2023-02-28T16:35:59;8.98;;;5.05;;
76417;SDS011;65250;47.602;19.002;2023-02-28T16:38:27;13.23;;;5.40;;
76417;SDS011;65250;47.602;19.002;2023-02-28T16:40:55;12.70;;;5.90;;
76417;SDS011;65250;47.602;19.002;2023-02-28T16:43:24;9.02;;;4.93;;
76417;SDS011;65250;47.602;19.002;2023-02-28T16:45:55;8.65;;;4.70;;
76417;SDS011;65250;47.602;19.002;2023-02-28T16:48:27;10.10;;;4.85;;
76417;SDS011;65250;47.602;19.002;2023-02-28T16:50:54;10.63;;;4.85;;
76417;SDS011;65250;47.602;19.002;2023-02-28T16:53:21;8.67;;;4.93;;
76417;SDS011;65250;47.602;19.002;2023-02-28T16:55:48;7.82;;;4.43;;
76417;SDS011;65250;47.602;19.002;2023-02-28T16:58:17;9.93;;;5.45;;
76417;SDS011;65250;47.602;19.002;2023-02-28T17:00:48;8.05;;;4.75;;
76417;SDS011;65250;47.602;19.002;2023-02-28T17:03:21;9.40;;;4.70;;
76417;SDS011;65250;47.602;19.002;2023-02-28T17:05:59;8.43;;;4.53;;
76417;SDS011;65250;47.602;19.002;2023-02-28T17:08:27;10.52;;;6.18;;
76417;SDS011;65250;47.602;19.002;2023-02-28T17:10:56;14.55;;;6.05;;
76417;SDS011;65250;47.602;19.002;2023-02-28T17:13:24;15.77;;;7.38;;
76417;SDS011;65250;47.602;19.002;2023-02-28T17:15:51;14.63;;;6.70;;
76417;SDS011;65250;47.602;19.002;2023-02-28T17:18:19;11.67;;;6.50;;
76417;SDS011;65250;47.602;19.002;2023-02-28T17:20:48;13.07;;;6.55;;
76417;SDS011;65250;47.602;19.002;2023-02-28T17:23:15;14.48;;;7.75;;
76417;SDS011;65250;47.602;19.002;2023-02-28T17:25:42;11.77;;;5.82;;
76417;SDS011;65250;47.602;19.002;2023-02-28T17:28:23;13.35;;;5.82;;
76417;SDS011;65250;47.602;19.002;2023-02-28T17:30:50;17.23;;;7.53;;
76417;SDS011;65250;47.602;19.002;2023-02-28T17:33:17;12.98;;;6.45;;
76417;SDS011;65250;47.602;19.002;2023-02-28T17:35:44;12.90;;;6.60;;
76417;SDS011;65250;47.602;19.002;2023-02-28T17:38:18;10.10;;;5.25;;
76417;SDS011;65250;47.602;19.002;2023-02-28T17:40:46;14.13;;;5.82;;
76417;SDS011;65250;47.602;19.002;2023-02-28T17:43:12;14.77;;;6.87;;
76417;SDS011;65250;47.602;19.002;2023-02-28T17:45:41;13.10;;;6.05;;
76417;SDS011;65250;47.602;19.002;2023-02-28T17:48:09;12.35;;;6.57;;
76417;SDS011;65250;47.602;19.002;2023-02-28T17:50:37;10.45;;;6.20;;
76417;SDS011;65250;47.602;19.002;2023-02-28T17:53:04;9.75;;;5.13;;
76417;SDS011;65250;47.602;19.002;2023-02-28T17:55:31;9.87;;;5.53;;
76417;SDS011;65250;47.602;19.002;2023-02-28T17:58:00;10.15;;;6.28;;
76417;SDS011;65250;47.602;19.002;2023-02-28T18:00:31;13.57;;;6.55;;
76417;SDS011;65250;47.602;19.002;2023-02-28T18:03:01;17.67;;;8.18;;